Kitty C — 2EIQ6 — position and weather

sailwx.info

Track history (hours):
 
Tides and Currents Weather Stations Pressure Air Temp Water Temp Dewpoint Dewpoint Depression Visibility Wind Speed Wind Dir Waves Ship Positions

Kitty C

Last reported at 2014-Aug-29 13:24 UTC. Time now 2014-Aug-29 14:23 UTC.
Position N 51°41' E 004°36'.

Length 106 m; draft 4.3 m.

Type: Cargo ship. MMSI: 235085464.

Date/timePositionNaut miles runAvg speedWind from/ knotsBaromVisibWave heightAir tempDewpointWater temp
2014-Aug-29 13:24N 51°41' E 004°36'0 0.0
2014-Aug-29 12:30N 51°41' E 004°36'0 0.0
2014-Aug-29 11:18N 51°41' E 004°36'0 0.0
2014-Aug-29 10:33N 51°41' E 004°36'0 0.0
2014-Aug-29 09:24N 51°41' E 004°36'0 0.0
2014-Aug-29 08:33N 51°41' E 004°36'5 4.6
2014-Aug-29 07:34N 51°46' E 004°38'8 8.1
2014-Aug-29 06:34N 51°50' E 004°26'9 8.7
2014-Aug-29 05:34N 51°55' E 004°15'1110.6
2014-Aug-29 04:33N 51°60' E 003°60'9 9.5
2014-Aug-29 03:33N 52°04' E 003°46'4 1.5
2014-Aug-29 01:08N 52°08' E 003°44'0 0.0
2014-Aug-28 19:29N 52°08' E 003°44'0 0.0
2014-Aug-28 10:29N 52°08' E 003°44'0 0.0
2014-Aug-28 08:26N 52°08' E 003°43'0 0.0
2014-Aug-28 07:08N 52°08' E 003°44'0 0.0
2014-Aug-28 06:29N 52°08' E 003°44'0 0.0
2014-Aug-28 04:11N 52°08' E 003°44'0 0.0
2014-Aug-28 03:20N 52°08' E 003°44'0 0.0
2014-Aug-28 02:23N 52°08' E 003°44'0 0.0
2014-Aug-28 01:32N 52°08' E 003°44'0 0.1
2014-Aug-28 00:26N 52°08' E 003°43'0 0.0
2014-Aug-27 23:26N 52°08' E 003°44'0 0.0
2014-Aug-27 22:23N 52°08' E 003°44'0 0.0
2014-Aug-27 21:29N 52°08' E 003°44'0 0.0
2014-Aug-27 20:32N 52°08' E 003°44'0 0.0
2014-Aug-27 19:26N 52°08' E 003°44'0 0.0
2014-Aug-27 18:29N 52°08' E 003°44'0 0.1
2014-Aug-27 17:20N 52°08' E 003°44'0 0.0
2014-Aug-27 12:17N 52°08' E 003°44'0 0.0
2014-Aug-27 06:29N 52°08' E 003°43'2 1.8
2014-Aug-27 05:33N 52°09' E 003°43'8 8.3
2014-Aug-27 04:33N 52°17' E 003°47'8 8.0
2014-Aug-27 03:33N 52°25' E 003°50'7 7.1
2014-Aug-27 02:33N 52°31' E 003°55'9 8.9
2014-Aug-27 01:33N 52°31' E 004°09'1010.0
2014-Aug-27 00:33N 52°29' E 004°25'7 6.8
2014-Aug-26 23:33N 52°28' E 004°36'9 8.7
2014-Aug-26 22:34N 52°25' E 004°50'2 1.7
2014-Aug-26 21:32N 52°24' E 004°52'0 0.0
2014-Aug-26 20:32N 52°24' E 004°52'0 0.0
2014-Aug-26 19:32N 52°24' E 004°52'0 0.0
2014-Aug-26 18:29N 52°24' E 004°52'0 0.0
2014-Aug-26 17:32N 52°24' E 004°52'0 0.0
2014-Aug-26 16:29N 52°24' E 004°52'0 0.0
2014-Aug-26 15:32N 52°24' E 004°52'0 0.0
2014-Aug-26 14:32N 52°24' E 004°52'0 0.1
2014-Aug-26 13:32N 52°24' E 004°52'0 0.0
2014-Aug-26 12:32N 52°24' E 004°52'0 0.0
2014-Aug-26 11:32N 52°24' E 004°52'0 0.0
2014-Aug-26 10:29N 52°24' E 004°52'0 0.0
2014-Aug-26 09:33N 52°24' E 004°52'0 0.0
2014-Aug-26 08:31N 52°24' E 004°52'0 0.0
2014-Aug-26 07:31N 52°24' E 004°52'0 0.0
2014-Aug-26 06:31N 52°24' E 004°52'0 0.0
2014-Aug-26 05:31N 52°24' E 004°52'0 0.0
2014-Aug-26 04:31N 52°24' E 004°52'0 0.0
2014-Aug-26 03:33N 52°24' E 004°52'0 0.0
2014-Aug-26 02:33N 52°24' E 004°52'0 0.0
2014-Aug-26 01:33N 52°24' E 004°52'0 0.0
2014-Aug-26 00:33N 52°24' E 004°52'0 0.0
2014-Aug-25 23:33N 52°24' E 004°52'0 0.1
2014-Aug-25 22:33N 52°24' E 004°52'0 0.0
2014-Aug-25 21:33N 52°24' E 004°52'0 0.0
2014-Aug-25 20:30N 52°24' E 004°52'0 0.0
2014-Aug-25 19:30N 52°24' E 004°52'0 0.0
2014-Aug-25 18:33N 52°24' E 004°52'0 0.0
2014-Aug-25 17:33N 52°24' E 004°52'0 0.0
2014-Aug-25 16:33N 52°24' E 004°52'0 0.0
2014-Aug-25 15:33N 52°24' E 004°52'0 0.0
2014-Aug-25 14:33N 52°24' E 004°52'0 0.0
2014-Aug-25 13:33N 52°24' E 004°52'0 0.0
2014-Aug-25 12:33N 52°24' E 004°52'0 0.0
2014-Aug-25 11:33N 52°24' E 004°52'0 0.0
2014-Aug-25 10:33N 52°24' E 004°52'0 0.0
2014-Aug-25 09:30N 52°24' E 004°52'0 0.0
2014-Aug-25 08:33N 52°24' E 004°52'0 0.0
2014-Aug-25 07:33N 52°24' E 004°52'0 0.2
2014-Aug-25 06:33N 52°24' E 004°52'0 0.0
2014-Aug-25 05:33N 52°24' E 004°52'0 0.0
2014-Aug-25 04:33N 52°24' E 004°52'0 0.0
2014-Aug-25 03:33N 52°24' E 004°52'0 0.0
2014-Aug-25 02:33N 52°24' E 004°52'0 0.0
2014-Aug-25 01:33N 52°24' E 004°52'0 0.0
2014-Aug-25 00:33N 52°24' E 004°52'0 0.0
2014-Aug-24 23:33N 52°24' E 004°52'0 0.0
2014-Aug-24 22:33N 52°24' E 004°52'0 0.0
2014-Aug-24 21:33N 52°24' E 004°52'0 0.0
2014-Aug-24 20:33N 52°24' E 004°52'0 0.0
2014-Aug-24 19:33N 52°24' E 004°52'0 0.0
2014-Aug-24 18:33N 52°24' E 004°52'0 0.0
2014-Aug-24 17:33N 52°24' E 004°52'0 0.0
2014-Aug-24 16:33N 52°24' E 004°52'0 0.0
2014-Aug-24 15:33N 52°24' E 004°52'0 0.0
2014-Aug-24 14:30N 52°24' E 004°52'0 0.0
2014-Aug-24 13:33N 52°24' E 004°52'0 0.0
2014-Aug-24 12:33N 52°24' E 004°52'0 0.0
2014-Aug-24 11:33N 52°24' E 004°52'0 0.0
2014-Aug-24 10:30N 52°24' E 004°52'0 0.0
2014-Aug-24 09:33N 52°24' E 004°52'0 0.0
2014-Aug-24 08:33N 52°24' E 004°52'0 0.0
2014-Aug-24 07:33N 52°24' E 004°52'0 0.0
2014-Aug-24 06:33N 52°24' E 004°52'0 0.0
2014-Aug-24 05:33N 52°24' E 004°52'0 0.0
2014-Aug-24 04:33N 52°24' E 004°52'0 0.0
2014-Aug-24 03:33N 52°24' E 004°52'0 0.0
2014-Aug-24 02:33N 52°24' E 004°52'0 0.0
2014-Aug-24 01:33N 52°24' E 004°52'0 0.0
2014-Aug-24 00:33N 52°24' E 004°52'0 0.0
2014-Aug-23 23:33N 52°24' E 004°52'0 0.0
2014-Aug-23 22:33N 52°24' E 004°52'0 0.0
2014-Aug-23 21:33N 52°24' E 004°52'0 0.0
2014-Aug-23 20:33N 52°24' E 004°52'0 0.0
2014-Aug-23 19:33N 52°24' E 004°52'0 0.0
2014-Aug-23 03:33N 52°24' E 004°52'0 0.0
2014-Aug-23 02:33N 52°24' E 004°52'0 0.0
2014-Aug-23 01:33N 52°24' E 004°52'0 0.0
2014-Aug-23 00:33N 52°24' E 004°52'0 0.0
2014-Aug-22 23:33N 52°24' E 004°52'0 0.0
2014-Aug-22 22:33N 52°24' E 004°52'0 0.0
2014-Aug-22 21:33N 52°24' E 004°52'0 0.0
2014-Aug-22 20:33N 52°24' E 004°52'0 0.0
2014-Aug-22 19:33N 52°24' E 004°52'0 0.0
2014-Aug-22 18:33N 52°24' E 004°52'0 0.0
2014-Aug-22 17:33N 52°24' E 004°52'0 0.0
2014-Aug-22 16:33N 52°24' E 004°52'0 0.0
2014-Aug-22 15:33N 52°24' E 004°52'0 0.0
2014-Aug-22 14:33N 52°24' E 004°52'0 0.0
2014-Aug-22 13:30N 52°24' E 004°52'0 0.0
2014-Aug-22 12:30N 52°24' E 004°52'0 0.0
2014-Aug-22 11:33N 52°24' E 004°52'0 0.0
2014-Aug-22 10:33N 52°24' E 004°52'0 0.0
2014-Aug-22 09:33N 52°24' E 004°52'0 0.0
2014-Aug-22 08:33N 52°24' E 004°52'0 0.0
2014-Aug-22 07:33N 52°24' E 004°52'0 0.0
2014-Aug-22 06:33N 52°24' E 004°52'0 0.0
2014-Aug-22 05:33N 52°24' E 004°52'0 0.0
2014-Aug-22 04:33N 52°24' E 004°52'0 0.0
2014-Aug-22 03:33N 52°24' E 004°52'0 0.0
2014-Aug-22 02:33N 52°24' E 004°52'0 0.0
2014-Aug-22 01:33N 52°24' E 004°52'0 0.0
2014-Aug-22 00:33N 52°24' E 004°52'0 0.0
2014-Aug-21 23:33N 52°24' E 004°52'0 0.0
2014-Aug-21 22:33N 52°24' E 004°52'0 0.0
2014-Aug-21 21:33N 52°24' E 004°52'0 0.0
2014-Aug-21 20:33N 52°24' E 004°52'0 0.0
2014-Aug-21 19:33N 52°24' E 004°52'0 0.0
2014-Aug-21 18:33N 52°24' E 004°52'0 0.0
2014-Aug-21 17:33N 52°24' E 004°52'0 0.0
2014-Aug-21 16:33N 52°24' E 004°52'0 0.0
2014-Aug-21 15:33N 52°24' E 004°52'0 0.0
2014-Aug-21 14:30N 52°24' E 004°52'0 0.0
2014-Aug-21 13:33N 52°24' E 004°52'0 0.0
2014-Aug-21 12:33N 52°24' E 004°52'0 0.0
2014-Aug-21 11:33N 52°24' E 004°52'0 0.0
2014-Aug-21 10:33N 52°24' E 004°52'0 0.0
2014-Aug-21 09:33N 52°24' E 004°52'0 0.0
2014-Aug-21 08:33N 52°24' E 004°52'0 0.0
2014-Aug-21 07:33N 52°24' E 004°52'0 0.0
2014-Aug-21 06:33N 52°24' E 004°52'0 0.0
2014-Aug-21 05:33N 52°24' E 004°52'0 0.0
2014-Aug-21 04:33N 52°24' E 004°52'0 0.0
2014-Aug-21 03:33N 52°24' E 004°52'0 0.0
2014-Aug-21 02:33N 52°24' E 004°52'0 0.0
2014-Aug-21 01:33N 52°24' E 004°52'0 0.0
2014-Aug-21 00:33N 52°24' E 004°52'0 0.0
2014-Aug-20 23:30N 52°24' E 004°52'0 0.0
2014-Aug-20 22:33N 52°24' E 004°52'0 0.0
2014-Aug-20 21:30N 52°24' E 004°52'0 0.0
2014-Aug-20 20:30N 52°24' E 004°52'0 0.0
2014-Aug-20 19:27N 52°24' E 004°52'0 0.0
2014-Aug-20 18:33N 52°24' E 004°52'0 0.0
2014-Aug-20 17:30N 52°24' E 004°52'0 0.0
2014-Aug-20 16:30N 52°24' E 004°52'0 0.0
2014-Aug-20 15:33N 52°24' E 004°52'0 0.0
2014-Aug-20 14:33N 52°24' E 004°52'0 0.0
2014-Aug-20 13:30N 52°24' E 004°52'0 0.0
2014-Aug-20 12:33N 52°24' E 004°52'0 0.0
2014-Aug-20 11:30N 52°24' E 004°52'0 0.0
2014-Aug-20 10:33N 52°24' E 004°52'0 0.0
2014-Aug-20 09:33N 52°24' E 004°52'0 0.0
2014-Aug-20 08:33N 52°24' E 004°52'0 0.0
2014-Aug-20 07:33N 52°24' E 004°52'0 0.0
2014-Aug-20 06:33N 52°24' E 004°52'0 0.0
2014-Aug-20 05:33N 52°24' E 004°52'0 0.0
2014-Aug-20 04:33N 52°24' E 004°52'0 0.0
2014-Aug-20 03:33N 52°24' E 004°52'0 0.0
2014-Aug-20 02:33N 52°24' E 004°52'0 0.0
2014-Aug-20 01:33N 52°24' E 004°52'0 0.0
2014-Aug-20 00:33N 52°24' E 004°52'0 0.0
2014-Aug-19 23:33N 52°24' E 004°52'0 0.0
2014-Aug-19 22:33N 52°24' E 004°52'0 0.0
2014-Aug-19 21:30N 52°24' E 004°52'0 0.0
2014-Aug-19 20:33N 52°24' E 004°52'0 0.0
2014-Aug-19 19:33N 52°24' E 004°52'0 0.0
2014-Aug-19 18:33N 52°24' E 004°52'0 0.0
2014-Aug-19 17:33N 52°24' E 004°52'0 0.0
2014-Aug-19 16:33N 52°24' E 004°52'0 0.0
2014-Aug-19 15:33N 52°24' E 004°52'0 0.0
2014-Aug-19 14:33N 52°24' E 004°52'0 0.0
2014-Aug-19 13:33N 52°24' E 004°52'  
Track history (hours):
 
Tides and Currents Weather Stations Pressure Air Temp Water Temp Dewpoint Dewpoint Depression Visibility Wind Speed Wind Dir Waves Ship Positions

Kitty C

Last reported at 2014-Aug-29 13:24 UTC. Time now 2014-Aug-29 14:23 UTC.
Position N 51°41' E 004°36'.

Length 106 m; draft 4.3 m.

Type: Cargo ship. MMSI: 235085464.

Date/timePositionNaut miles runAvg speedWind from/ knotsBaromVisibWave heightAir tempDewpointWater temp
2014-Aug-29 13:24N 51°41' E 004°36'0 0.0
2014-Aug-29 12:30N 51°41' E 004°36'0 0.0
2014-Aug-29 11:18N 51°41' E 004°36'0 0.0
2014-Aug-29 10:33N 51°41' E 004°36'0 0.0
2014-Aug-29 09:24N 51°41' E 004°36'0 0.0
2014-Aug-29 08:33N 51°41' E 004°36'5 4.6
2014-Aug-29 07:34N 51°46' E 004°38'8 8.1
2014-Aug-29 06:34N 51°50' E 004°26'9 8.7
2014-Aug-29 05:34N 51°55' E 004°15'1110.6
2014-Aug-29 04:33N 51°60' E 003°60'9 9.5
2014-Aug-29 03:33N 52°04' E 003°46'4 1.5
2014-Aug-29 01:08N 52°08' E 003°44'0 0.0
2014-Aug-28 19:29N 52°08' E 003°44'0 0.0
2014-Aug-28 10:29N 52°08' E 003°44'0 0.0
2014-Aug-28 08:26N 52°08' E 003°43'0 0.0
2014-Aug-28 07:08N 52°08' E 003°44'0 0.0
2014-Aug-28 06:29N 52°08' E 003°44'0 0.0
2014-Aug-28 04:11N 52°08' E 003°44'0 0.0
2014-Aug-28 03:20N 52°08' E 003°44'0 0.0
2014-Aug-28 02:23N 52°08' E 003°44'0 0.0
2014-Aug-28 01:32N 52°08' E 003°44'0 0.1
2014-Aug-28 00:26N 52°08' E 003°43'0 0.0
2014-Aug-27 23:26N 52°08' E 003°44'0 0.0
2014-Aug-27 22:23N 52°08' E 003°44'0 0.0
2014-Aug-27 21:29N 52°08' E 003°44'0 0.0
2014-Aug-27 20:32N 52°08' E 003°44'0 0.0
2014-Aug-27 19:26N 52°08' E 003°44'0 0.0
2014-Aug-27 18:29N 52°08' E 003°44'0 0.1
2014-Aug-27 17:20N 52°08' E 003°44'0 0.0
2014-Aug-27 12:17N 52°08' E 003°44'0 0.0
2014-Aug-27 06:29N 52°08' E 003°43'2 1.8
2014-Aug-27 05:33N 52°09' E 003°43'8 8.3
2014-Aug-27 04:33N 52°17' E 003°47'8 8.0
2014-Aug-27 03:33N 52°25' E 003°50'7 7.1
2014-Aug-27 02:33N 52°31' E 003°55'9 8.9
2014-Aug-27 01:33N 52°31' E 004°09'1010.0
2014-Aug-27 00:33N 52°29' E 004°25'7 6.8
2014-Aug-26 23:33N 52°28' E 004°36'9 8.7
2014-Aug-26 22:34N 52°25' E 004°50'2 1.7
2014-Aug-26 21:32N 52°24' E 004°52'0 0.0
2014-Aug-26 20:32N 52°24' E 004°52'0 0.0
2014-Aug-26 19:32N 52°24' E 004°52'0 0.0
2014-Aug-26 18:29N 52°24' E 004°52'0 0.0
2014-Aug-26 17:32N 52°24' E 004°52'0 0.0
2014-Aug-26 16:29N 52°24' E 004°52'0 0.0
2014-Aug-26 15:32N 52°24' E 004°52'0 0.0
2014-Aug-26 14:32N 52°24' E 004°52'0 0.1
2014-Aug-26 13:32N 52°24' E 004°52'0 0.0
2014-Aug-26 12:32N 52°24' E 004°52'0 0.0
2014-Aug-26 11:32N 52°24' E 004°52'0 0.0
2014-Aug-26 10:29N 52°24' E 004°52'0 0.0
2014-Aug-26 09:33N 52°24' E 004°52'0 0.0
2014-Aug-26 08:31N 52°24' E 004°52'0 0.0
2014-Aug-26 07:31N 52°24' E 004°52'0 0.0
2014-Aug-26 06:31N 52°24' E 004°52'0 0.0
2014-Aug-26 05:31N 52°24' E 004°52'0 0.0
2014-Aug-26 04:31N 52°24' E 004°52'0 0.0
2014-Aug-26 03:33N 52°24' E 004°52'0 0.0
2014-Aug-26 02:33N 52°24' E 004°52'0 0.0
2014-Aug-26 01:33N 52°24' E 004°52'0 0.0
2014-Aug-26 00:33N 52°24' E 004°52'0 0.0
2014-Aug-25 23:33N 52°24' E 004°52'0 0.1
2014-Aug-25 22:33N 52°24' E 004°52'0 0.0
2014-Aug-25 21:33N 52°24' E 004°52'0 0.0
2014-Aug-25 20:30N 52°24' E 004°52'0 0.0
2014-Aug-25 19:30N 52°24' E 004°52'0 0.0
2014-Aug-25 18:33N 52°24' E 004°52'0 0.0
2014-Aug-25 17:33N 52°24' E 004°52'0 0.0
2014-Aug-25 16:33N 52°24' E 004°52'0 0.0
2014-Aug-25 15:33N 52°24' E 004°52'0 0.0
2014-Aug-25 14:33N 52°24' E 004°52'0 0.0
2014-Aug-25 13:33N 52°24' E 004°52'0 0.0
2014-Aug-25 12:33N 52°24' E 004°52'0 0.0
2014-Aug-25 11:33N 52°24' E 004°52'0 0.0
2014-Aug-25 10:33N 52°24' E 004°52'0 0.0
2014-Aug-25 09:30N 52°24' E 004°52'0 0.0
2014-Aug-25 08:33N 52°24' E 004°52'0 0.0
2014-Aug-25 07:33N 52°24' E 004°52'0 0.2
2014-Aug-25 06:33N 52°24' E 004°52'0 0.0
2014-Aug-25 05:33N 52°24' E 004°52'0 0.0
2014-Aug-25 04:33N 52°24' E 004°52'0 0.0
2014-Aug-25 03:33N 52°24' E 004°52'0 0.0
2014-Aug-25 02:33N 52°24' E 004°52'0 0.0
2014-Aug-25 01:33N 52°24' E 004°52'0 0.0
2014-Aug-25 00:33N 52°24' E 004°52'0 0.0
2014-Aug-24 23:33N 52°24' E 004°52'0 0.0
2014-Aug-24 22:33N 52°24' E 004°52'0 0.0
2014-Aug-24 21:33N 52°24' E 004°52'0 0.0
2014-Aug-24 20:33N 52°24' E 004°52'0 0.0
2014-Aug-24 19:33N 52°24' E 004°52'0 0.0
2014-Aug-24 18:33N 52°24' E 004°52'0 0.0
2014-Aug-24 17:33N 52°24' E 004°52'0 0.0
2014-Aug-24 16:33N 52°24' E 004°52'0 0.0
2014-Aug-24 15:33N 52°24' E 004°52'0 0.0
2014-Aug-24 14:30N 52°24' E 004°52'0 0.0
2014-Aug-24 13:33N 52°24' E 004°52'0 0.0
2014-Aug-24 12:33N 52°24' E 004°52'0 0.0
2014-Aug-24 11:33N 52°24' E 004°52'0 0.0
2014-Aug-24 10:30N 52°24' E 004°52'0 0.0
2014-Aug-24 09:33N 52°24' E 004°52'0 0.0
2014-Aug-24 08:33N 52°24' E 004°52'0 0.0
2014-Aug-24 07:33N 52°24' E 004°52'0 0.0
2014-Aug-24 06:33N 52°24' E 004°52'0 0.0
2014-Aug-24 05:33N 52°24' E 004°52'0 0.0
2014-Aug-24 04:33N 52°24' E 004°52'0 0.0
2014-Aug-24 03:33N 52°24' E 004°52'0 0.0
2014-Aug-24 02:33N 52°24' E 004°52'0 0.0
2014-Aug-24 01:33N 52°24' E 004°52'0 0.0
2014-Aug-24 00:33N 52°24' E 004°52'0 0.0
2014-Aug-23 23:33N 52°24' E 004°52'0 0.0
2014-Aug-23 22:33N 52°24' E 004°52'0 0.0
2014-Aug-23 21:33N 52°24' E 004°52'0 0.0
2014-Aug-23 20:33N 52°24' E 004°52'0 0.0
2014-Aug-23 19:33N 52°24' E 004°52'0 0.0
2014-Aug-23 03:33N 52°24' E 004°52'0 0.0
2014-Aug-23 02:33N 52°24' E 004°52'0 0.0
2014-Aug-23 01:33N 52°24' E 004°52'0 0.0
2014-Aug-23 00:33N 52°24' E 004°52'0 0.0
2014-Aug-22 23:33N 52°24' E 004°52'0 0.0
2014-Aug-22 22:33N 52°24' E 004°52'0 0.0
2014-Aug-22 21:33N 52°24' E 004°52'0 0.0
2014-Aug-22 20:33N 52°24' E 004°52'0 0.0
2014-Aug-22 19:33N 52°24' E 004°52'0 0.0
2014-Aug-22 18:33N 52°24' E 004°52'0 0.0
2014-Aug-22 17:33N 52°24' E 004°52'0 0.0
2014-Aug-22 16:33N 52°24' E 004°52'0 0.0
2014-Aug-22 15:33N 52°24' E 004°52'0 0.0
2014-Aug-22 14:33N 52°24' E 004°52'0 0.0
2014-Aug-22 13:30N 52°24' E 004°52'0 0.0
2014-Aug-22 12:30N 52°24' E 004°52'0 0.0
2014-Aug-22 11:33N 52°24' E 004°52'0 0.0
2014-Aug-22 10:33N 52°24' E 004°52'0 0.0
2014-Aug-22 09:33N 52°24' E 004°52'0 0.0
2014-Aug-22 08:33N 52°24' E 004°52'0 0.0
2014-Aug-22 07:33N 52°24' E 004°52'0 0.0
2014-Aug-22 06:33N 52°24' E 004°52'0 0.0
2014-Aug-22 05:33N 52°24' E 004°52'0 0.0
2014-Aug-22 04:33N 52°24' E 004°52'0 0.0
2014-Aug-22 03:33N 52°24' E 004°52'0 0.0
2014-Aug-22 02:33N 52°24' E 004°52'0 0.0
2014-Aug-22 01:33N 52°24' E 004°52'0 0.0
2014-Aug-22 00:33N 52°24' E 004°52'0 0.0
2014-Aug-21 23:33N 52°24' E 004°52'0 0.0
2014-Aug-21 22:33N 52°24' E 004°52'0 0.0
2014-Aug-21 21:33N 52°24' E 004°52'0 0.0
2014-Aug-21 20:33N 52°24' E 004°52'0 0.0
2014-Aug-21 19:33N 52°24' E 004°52'0 0.0
2014-Aug-21 18:33N 52°24' E 004°52'0 0.0
2014-Aug-21 17:33N 52°24' E 004°52'0 0.0
2014-Aug-21 16:33N 52°24' E 004°52'0 0.0
2014-Aug-21 15:33N 52°24' E 004°52'0 0.0
2014-Aug-21 14:30N 52°24' E 004°52'0 0.0
2014-Aug-21 13:33N 52°24' E 004°52'0 0.0
2014-Aug-21 12:33N 52°24' E 004°52'0 0.0
2014-Aug-21 11:33N 52°24' E 004°52'0 0.0
2014-Aug-21 10:33N 52°24' E 004°52'0 0.0
2014-Aug-21 09:33N 52°24' E 004°52'0 0.0
2014-Aug-21 08:33N 52°24' E 004°52'0 0.0
2014-Aug-21 07:33N 52°24' E 004°52'0 0.0
2014-Aug-21 06:33N 52°24' E 004°52'0 0.0
2014-Aug-21 05:33N 52°24' E 004°52'0 0.0
2014-Aug-21 04:33N 52°24' E 004°52'0 0.0
2014-Aug-21 03:33N 52°24' E 004°52'0 0.0
2014-Aug-21 02:33N 52°24' E 004°52'0 0.0
2014-Aug-21 01:33N 52°24' E 004°52'0 0.0
2014-Aug-21 00:33N 52°24' E 004°52'0 0.0
2014-Aug-20 23:30N 52°24' E 004°52'0 0.0
2014-Aug-20 22:33N 52°24' E 004°52'0 0.0
2014-Aug-20 21:30N 52°24' E 004°52'0 0.0
2014-Aug-20 20:30N 52°24' E 004°52'0 0.0
2014-Aug-20 19:27N 52°24' E 004°52'0 0.0
2014-Aug-20 18:33N 52°24' E 004°52'0 0.0
2014-Aug-20 17:30N 52°24' E 004°52'0 0.0
2014-Aug-20 16:30N 52°24' E 004°52'0 0.0
2014-Aug-20 15:33N 52°24' E 004°52'0 0.0
2014-Aug-20 14:33N 52°24' E 004°52'0 0.0
2014-Aug-20 13:30N 52°24' E 004°52'0 0.0
2014-Aug-20 12:33N 52°24' E 004°52'0 0.0
2014-Aug-20 11:30N 52°24' E 004°52'0 0.0
2014-Aug-20 10:33N 52°24' E 004°52'0 0.0
2014-Aug-20 09:33N 52°24' E 004°52'0 0.0
2014-Aug-20 08:33N 52°24' E 004°52'0 0.0
2014-Aug-20 07:33N 52°24' E 004°52'0 0.0
2014-Aug-20 06:33N 52°24' E 004°52'0 0.0
2014-Aug-20 05:33N 52°24' E 004°52'0 0.0
2014-Aug-20 04:33N 52°24' E 004°52'0 0.0
2014-Aug-20 03:33N 52°24' E 004°52'0 0.0
2014-Aug-20 02:33N 52°24' E 004°52'0 0.0
2014-Aug-20 01:33N 52°24' E 004°52'0 0.0
2014-Aug-20 00:33N 52°24' E 004°52'0 0.0
2014-Aug-19 23:33N 52°24' E 004°52'0 0.0
2014-Aug-19 22:33N 52°24' E 004°52'0 0.0
2014-Aug-19 21:30N 52°24' E 004°52'0 0.0
2014-Aug-19 20:33N 52°24' E 004°52'0 0.0
2014-Aug-19 19:33N 52°24' E 004°52'0 0.0
2014-Aug-19 18:33N 52°24' E 004°52'0 0.0
2014-Aug-19 17:33N 52°24' E 004°52'0 0.0
2014-Aug-19 16:33N 52°24' E 004°52'0 0.0
2014-Aug-19 15:33N 52°24' E 004°52'0 0.0
2014-Aug-19 14:33N 52°24' E 004°52'0 0.0
2014-Aug-19 13:33N 52°24' E 004°52'  

Dump ship's entire track history